Washington, Nebraska
Current Conditions -  °F | °C
As of 12:15 PM on Sunday 25 Jan 2015 (Local Time) from KBTA Reporting Station
Overcast Overcast  
Wind Chill: 30°   Ceiling: 1100
Heat Index: 38°   Visibility: 10mi
Dew Point: 33°   Wind: 15mph
Humidity: 81%   Direction: 340°NNW
Pressure: 29.97"   Gusts: 23mph
Location:  41.4°N, 96.21°W
Report Text: KBTA 251815Z AUTO 34013G20KT 10SM OVC011 04/01 A2997 RMK AO2 T00360006
Loading
Personal Weather Stations






























Interactive Weather Map New forecast layout! Learn more

10-Day Weather Forecast

Advertisements
Track Severe Weather on mobile